Time;durP1;ratioP1;P1;durP2;ratioP2;P2;SDS_P1;SDS_P2;PMS_P1;PMS_P2;Temp;Humidity;BMP_temperature;BMP_pressure;BME280_temperature;BME280_humidity;BME280_pressure;Samples;Min_cycle;Max_cycle;Signal;HPM_P1;HPM_P2
2021/07/22 00:00:12;;;;;;;14.18;10.35;;;18.70;99.90;;;;;;2106198;28;20027;-67
2021/07/22 00:01:13;;;;;;;11.93;10.63;;;18.80;99.90;;;;;;2105786;28;20074;-67
2021/07/22 00:02:13;;;;;;;12.43;9.93;;;18.80;99.90;;;;;;2105821;28;20028;-67
2021/07/22 00:03:14;;;;;;;13.15;10.35;;;18.70;99.90;;;;;;2105587;28;20379;-67
2021/07/22 00:04:14;;;;;;;12.82;9.88;;;18.80;99.90;;;;;;2105980;28;20043;-67
2021/07/22 00:05:15;;;;;;;11.25;10.13;;;18.80;99.90;;;;;;2105829;28;20047;-67
2021/07/22 00:06:16;;;;;;;10.27;9.18;;;18.80;99.90;;;;;;2111490;28;20020;-67
2021/07/22 00:07:16;;;;;;;11.25;9.95;;;18.80;99.90;;;;;;2114123;28;20051;-67
2021/07/22 00:08:17;;;;;;;11.48;10.23;;;18.80;99.90;;;;;;2114294;28;20031;-67
2021/07/22 00:09:17;;;;;;;13.43;10.98;;;18.80;99.90;;;;;;2113583;28;20015;-67
2021/07/22 00:10:18;;;;;;;13.52;10.73;;;18.70;99.90;;;;;;2113980;28;20047;-67
2021/07/22 00:11:18;;;;;;;11.07;9.98;;;18.80;99.90;;;;;;2114423;28;20084;-67
2021/07/22 00:12:19;;;;;;;11.68;10.13;;;18.80;99.90;;;;;;2113645;28;20119;-67
2021/07/22 00:13:19;;;;;;;12.13;9.25;;;18.70;99.90;;;;;;2114233;28;20463;-67
2021/07/22 00:14:20;;;;;;;10.32;9.20;;;18.80;99.90;;;;;;2114249;28;20062;-67
2021/07/22 00:15:21;;;;;;;11.10;9.80;;;18.70;99.90;;;;;;2114432;28;20031;-67
2021/07/22 00:16:21;;;;;;;13.43;10.68;;;18.80;99.90;;;;;;2110863;28;20043;-67
2021/07/22 00:17:22;;;;;;;10.38;9.38;;;18.80;99.90;;;;;;2108614;28;20035;-67
2021/07/22 00:18:22;;;;;;;11.30;10.07;;;18.80;99.90;;;;;;2114175;28;20502;-67
2021/07/22 00:19:23;;;;;;;12.68;10.45;;;18.80;99.90;;;;;;2114501;28;20019;-67
2021/07/22 00:20:24;;;;;;;12.55;9.73;;;18.80;99.90;;;;;;2114205;28;20023;-67
2021/07/22 00:21:24;;;;;;;10.52;9.43;;;18.80;99.90;;;;;;2114403;28;20337;-67
2021/07/22 00:22:24;;;;;;;11.18;9.68;;;18.80;99.90;;;;;;2114075;28;20032;-67
2021/07/22 00:23:26;;;;;;;13.02;9.88;;;18.80;99.90;;;;;;2114048;28;20092;-67
2021/07/22 00:24:26;;;;;;;12.35;9.88;;;18.80;99.90;;;;;;2114306;28;20034;-67
2021/07/22 00:25:27;;;;;;;11.38;9.55;;;18.80;99.90;;;;;;2114446;28;20022;-67
2021/07/22 00:26:27;;;;;;;11.43;10.20;;;18.80;99.90;;;;;;2113985;28;20032;-67
2021/07/22 00:27:28;;;;;;;13.38;9.77;;;18.80;99.90;;;;;;2114225;28;20030;-67
2021/07/22 00:28:28;;;;;;;12.95;9.80;;;18.80;99.90;;;;;;2114311;28;20062;-67
2021/07/22 00:29:32;;;;;;;10.70;9.43;;;18.80;99.90;;;;;;2114140;28;20375;-67
2021/07/22 00:30:33;;;;;;;10.60;9.50;;;18.80;99.90;;;;;;2114087;28;20102;-67
2021/07/22 00:31:34;;;;;;;12.57;10.60;;;18.80;99.90;;;;;;2107839;28;20020;-67
2021/07/22 00:32:35;;;;;;;12.15;9.63;;;18.80;99.90;;;;;;2113766;28;20027;-67
2021/07/22 00:33:36;;;;;;;10.73;8.98;;;18.80;99.90;;;;;;2113704;28;20027;-67
2021/07/22 00:34:37;;;;;;;12.73;9.43;;;18.80;99.90;;;;;;2113548;28;20020;-67
2021/07/22 00:35:37;;;;;;;10.65;9.40;;;18.80;99.90;;;;;;2100761;28;20027;-67
2021/07/22 00:36:38;;;;;;;10.52;9.45;;;18.80;99.90;;;;;;2098789;28;20029;-67
2021/07/22 00:37:39;;;;;;;11.93;8.82;;;18.80;99.90;;;;;;2105684;28;20450;-67
2021/07/22 00:38:39;;;;;;;11.77;9.55;;;18.80;99.90;;;;;;2105702;28;20032;-67
2021/07/22 00:39:40;;;;;;;11.95;10.30;;;18.80;99.90;;;;;;2105929;28;20020;-67
2021/07/22 00:40:44;;;;;;;12.75;10.18;;;18.90;99.90;;;;;;2104969;28;20077;-67
2021/07/22 00:41:45;;;;;;;12.00;9.93;;;18.80;99.90;;;;;;2105031;28;20483;-67
2021/07/22 00:43:02;;;;;;;11.90;9.93;;;18.80;99.90;;;;;;2105467;28;20356;-67
2021/07/22 00:44:03;;;;;;;11.20;9.88;;;18.80;99.90;;;;;;2096792;28;20138;-67
2021/07/22 00:45:04;;;;;;;11.40;10.00;;;18.80;99.90;;;;;;2100009;28;20016;-67
2021/07/22 00:46:05;;;;;;;11.82;9.23;;;18.80;99.90;;;;;;2105796;28;20044;-67
2021/07/22 00:47:06;;;;;;;12.88;9.95;;;18.80;99.90;;;;;;2113054;28;20024;-67
2021/07/22 00:48:06;;;;;;;10.05;9.07;;;18.80;99.90;;;;;;2107437;28;20020;-67
2021/07/22 00:49:08;;;;;;;10.80;9.70;;;18.80;99.90;;;;;;2105702;28;20081;-67
2021/07/22 00:50:09;;;;;;;12.02;9.88;;;18.80;99.90;;;;;;2105921;28;20031;-67
2021/07/22 00:51:10;;;;;;;14.80;9.82;;;18.90;99.90;;;;;;2105654;28;20055;-67
2021/07/22 00:52:10;;;;;;;11.35;10.18;;;18.90;99.90;;;;;;2105764;28;20045;-67
2021/07/22 00:53:11;;;;;;;10.65;8.68;;;18.80;99.90;;;;;;2105226;28;20738;-67
2021/07/22 00:54:11;;;;;;;12.77;10.32;;;18.90;99.90;;;;;;2105964;28;20383;-67
2021/07/22 00:55:22;;;;;;;11.48;9.57;;;18.90;99.90;;;;;;2104897;28;20070;-67
2021/07/22 00:56:22;;;;;;;10.52;9.02;;;18.90;99.90;;;;;;2105349;28;20036;-67
2021/07/22 00:57:23;;;;;;;10.30;9.30;;;18.90;99.90;;;;;;2105747;28;20523;-67
2021/07/22 00:58:23;;;;;;;11.65;10.13;;;18.90;99.90;;;;;;2105737;28;20376;-67
2021/07/22 00:59:24;;;;;;;10.90;9.27;;;18.90;99.90;;;;;;2105461;28;20036;-67
2021/07/22 01:00:24;;;;;;;12.63;10.25;;;18.90;99.90;;;;;;2105725;28;20031;-67
2021/07/22 01:01:25;;;;;;;12.15;9.10;;;18.90;99.90;;;;;;2103134;28;20355;-67
2021/07/22 01:02:25;;;;;;;12.90;10.02;;;18.90;99.90;;;;;;2107453;28;20032;-67
2021/07/22 01:03:26;;;;;;;11.80;9.75;;;18.90;99.90;;;;;;2106704;28;20118;-67
2021/07/22 01:04:26;;;;;;;12.27;10.98;;;18.90;99.90;;;;;;2107814;28;20024;-67
2021/07/22 01:05:27;;;;;;;11.40;9.52;;;18.90;99.90;;;;;;2114228;28;20398;-67
2021/07/22 01:06:27;;;;;;;11.98;9.38;;;18.90;99.90;;;;;;2106703;28;20383;-67
2021/07/22 01:07:28;;;;;;;15.18;10.68;;;18.90;99.90;;;;;;2105729;28;20077;-67
2021/07/22 01:08:28;;;;;;;14.40;10.70;;;19.00;99.90;;;;;;2105857;28;20024;-67
2021/07/22 01:09:29;;;;;;;11.32;10.18;;;19.00;99.90;;;;;;2105780;28;20052;-67
2021/07/22 01:10:30;;;;;;;12.35;9.93;;;18.90;99.90;;;;;;2105560;28;20534;-67
2021/07/22 01:11:30;;;;;;;11.68;10.45;;;19.00;99.90;;;;;;2105609;28;20024;-67
2021/07/22 01:12:31;;;;;;;12.25;9.48;;;19.00;99.90;;;;;;2105446;28;20440;-67
2021/07/22 01:13:32;;;;;;;11.15;8.90;;;19.00;99.90;;;;;;2105515;28;20028;-67
2021/07/22 01:14:32;;;;;;;13.88;10.00;;;19.00;99.90;;;;;;2104476;28;20380;-67
2021/07/22 01:15:33;;;;;;;12.23;10.43;;;19.00;99.90;;;;;;2106274;28;20476;-67
2021/07/22 01:16:34;;;;;;;13.45;9.25;;;19.00;99.90;;;;;;2114085;28;20024;-67
2021/07/22 01:17:48;;;;;;;12.48;10.40;;;19.00;99.90;;;;;;2114196;28;20028;-67
2021/07/22 01:18:49;;;;;;;11.27;9.25;;;19.00;99.90;;;;;;2110730;28;20027;-67
2021/07/22 01:19:49;;;;;;;11.90;9.85;;;19.00;99.90;;;;;;2105861;28;20489;-67
2021/07/22 01:20:50;;;;;;;10.68;8.32;;;19.00;99.90;;;;;;2105622;28;20028;-67
2021/07/22 01:21:50;;;;;;;10.88;8.50;;;18.90;99.90;;;;;;2105482;28;20020;-67
2021/07/22 01:22:53;;;;;;;11.18;9.23;;;18.90;99.90;;;;;;2105281;28;20020;-67
2021/07/22 01:23:54;;;;;;;10.02;9.02;;;18.90;99.90;;;;;;2105639;28;20028;-67
2021/07/22 01:24:55;;;;;;;10.27;9.18;;;18.90;99.90;;;;;;2107113;28;20012;-67
2021/07/22 01:25:55;;;;;;;10.85;9.75;;;18.90;99.90;;;;;;2107165;28;20083;-67
2021/07/22 01:26:56;;;;;;;9.57;8.57;;;18.90;99.90;;;;;;2106973;28;20502;-67
2021/07/22 01:27:57;;;;;;;11.48;9.13;;;18.90;99.90;;;;;;2107630;28;20016;-67
2021/07/22 01:28:58;;;;;;;12.43;9.73;;;18.90;99.90;;;;;;2106890;28;20024;-67
2021/07/22 01:29:58;;;;;;;9.93;8.90;;;18.90;99.90;;;;;;2107332;28;20023;-67
2021/07/22 01:30:59;;;;;;;12.00;9.15;;;18.90;99.90;;;;;;2107118;28;20020;-67
2021/07/22 01:32:06;;;;;;;10.63;9.45;;;18.90;99.90;;;;;;2107056;28;20012;-67
2021/07/22 01:33:07;;;;;;;13.02;9.48;;;18.90;99.90;;;;;;2106914;28;20031;-67
2021/07/22 01:34:07;;;;;;;12.52;10.32;;;18.90;99.90;;;;;;2107070;28;20020;-67
2021/07/22 01:35:09;;;;;;;10.60;9.02;;;18.80;99.90;;;;;;2107150;28;20035;-67
2021/07/22 01:36:10;;;;;;;12.43;9.60;;;18.80;99.90;;;;;;2107271;28;20036;-67
2021/07/22 01:37:10;;;;;;;10.80;9.70;;;18.80;99.90;;;;;;2107063;28;20458;-67
2021/07/22 01:38:11;;;;;;;12.25;9.10;;;18.90;99.90;;;;;;2107123;28;20387;-67
2021/07/22 01:39:11;;;;;;;12.38;10.25;;;18.80;99.90;;;;;;2107137;28;20042;-67
2021/07/22 01:40:13;;;;;;;11.07;9.60;;;18.80;99.90;;;;;;2107402;28;20028;-67
2021/07/22 01:41:13;;;;;;;10.90;9.75;;;18.80;99.90;;;;;;2106913;28;20032;-67
2021/07/22 01:42:14;;;;;;;9.82;8.80;;;18.90;99.90;;;;;;2106705;28;20028;-67
2021/07/22 01:43:14;;;;;;;11.32;9.68;;;18.90;99.90;;;;;;2106432;28;20075;-67
2021/07/22 01:44:16;;;;;;;15.00;10.20;;;18.80;99.90;;;;;;2107092;28;20457;-67
2021/07/22 01:45:17;;;;;;;13.20;9.98;;;18.80;99.90;;;;;;2112845;28;20141;-67
2021/07/22 01:46:19;;;;;;;12.50;9.68;;;18.80;99.90;;;;;;2115696;28;20055;-67
2021/07/22 01:47:20;;;;;;;10.23;9.23;;;18.80;99.90;;;;;;2115308;28;20149;-67
2021/07/22 01:48:20;;;;;;;10.32;8.68;;;18.80;99.90;;;;;;2107266;28;20024;-67
2021/07/22 01:49:21;;;;;;;11.13;9.60;;;18.80;99.90;;;;;;2107006;28;20103;-67
2021/07/22 01:50:21;;;;;;;11.23;9.50;;;18.80;99.90;;;;;;2107200;28;20028;-67
2021/07/22 01:51:22;;;;;;;12.05;9.95;;;18.80;99.90;;;;;;2106863;28;20062;-67
2021/07/22 01:52:22;;;;;;;10.40;9.30;;;18.80;99.90;;;;;;2106662;28;20059;-67
2021/07/22 01:53:23;;;;;;;12.93;10.32;;;18.70;99.90;;;;;;2106568;28;20530;-67
2021/07/22 01:54:36;;;;;;;12.35;9.85;;;18.70;99.90;;;;;;2107314;28;20095;-67
2021/07/22 01:55:36;;;;;;;10.77;9.68;;;18.70;99.90;;;;;;2107826;28;20027;-67
2021/07/22 01:56:37;;;;;;;11.10;9.23;;;18.70;99.90;;;;;;2110706;28;20047;-67
2021/07/22 01:57:37;;;;;;;11.43;8.20;;;18.70;99.90;;;;;;2110839;28;20024;-67
2021/07/22 01:58:38;;;;;;;12.40;9.80;;;18.70;99.90;;;;;;2106277;28;20028;-67
2021/07/22 01:59:38;;;;;;;12.13;9.43;;;18.70;99.90;;;;;;2109764;28;20060;-67
2021/07/22 02:00:39;;;;;;;11.23;9.68;;;18.70;99.90;;;;;;2114970;28;20154;-67
2021/07/22 02:01:39;;;;;;;12.38;8.90;;;18.70;99.90;;;;;;2110341;28;20028;-67
2021/07/22 02:02:41;;;;;;;12.63;9.68;;;18.60;99.90;;;;;;2108108;28;20020;-67
2021/07/22 02:03:42;;;;;;;11.48;9.43;;;18.70;99.90;;;;;;2115167;28;20350;-67
2021/07/22 02:04:43;;;;;;;12.02;9.30;;;18.70;99.90;;;;;;2114835;28;20020;-67
2021/07/22 02:05:43;;;;;;;11.00;9.27;;;18.60;99.90;;;;;;2114423;28;20019;-67
2021/07/22 02:06:43;;;;;;;12.40;10.20;;;18.60;99.90;;;;;;2115510;27;20034;-67
2021/07/22 02:07:44;;;;;;;11.43;9.15;;;18.60;99.90;;;;;;2110719;28;20028;-67
2021/07/22 02:08:45;;;;;;;10.07;9.00;;;18.60;99.90;;;;;;2112012;28;20028;-67
2021/07/22 02:09:45;;;;;;;10.50;8.95;;;18.60;99.90;;;;;;2112229;28;20055;-67
2021/07/22 02:10:46;;;;;;;12.73;8.55;;;18.60;99.90;;;;;;2110386;28;20985;-67
2021/07/22 02:11:46;;;;;;;10.52;9.48;;;18.60;99.90;;;;;;2106720;28;20099;-67
2021/07/22 02:12:47;;;;;;;10.23;9.18;;;18.60;99.90;;;;;;2106541;28;20426;-67
2021/07/22 02:13:47;;;;;;;11.15;9.32;;;18.60;99.90;;;;;;2106930;28;20032;-67
2021/07/22 02:14:51;;;;;;;9.73;8.73;;;18.60;99.90;;;;;;2106529;28;20024;-67
2021/07/22 02:15:52;;;;;;;11.80;9.60;;;18.60;99.90;;;;;;2106830;28;20028;-67
2021/07/22 02:16:52;;;;;;;10.65;9.55;;;18.50;99.90;;;;;;2106954;28;20039;-67
2021/07/22 02:17:53;;;;;;;10.20;8.77;;;18.60;99.90;;;;;;2106794;28;20036;-67
2021/07/22 02:18:54;;;;;;;10.90;9.20;;;18.50;99.90;;;;;;2107015;28;20024;-67
2021/07/22 02:19:54;;;;;;;9.75;8.30;;;18.50;99.90;;;;;;2106644;28;20032;-67
2021/07/22 02:20:55;;;;;;;11.82;9.43;;;18.50;99.90;;;;;;2106865;28;20048;-67
2021/07/22 02:21:55;;;;;;;10.23;9.00;;;18.50;99.90;;;;;;2106516;28;20459;-67
2021/07/22 02:22:56;;;;;;;10.52;9.43;;;18.50;99.90;;;;;;2106760;28;20047;-67
2021/07/22 02:23:56;;;;;;;11.65;9.85;;;18.50;99.90;;;;;;2106528;28;20024;-67
2021/07/22 02:24:57;;;;;;;12.15;9.57;;;18.50;99.90;;;;;;2106837;28;20051;-67
2021/07/22 02:25:58;;;;;;;11.15;9.93;;;18.50;99.90;;;;;;2106678;28;20617;-67
2021/07/22 02:27:01;;;;;;;11.45;9.88;;;18.50;99.90;;;;;;2107721;28;20035;-67
2021/07/22 02:28:01;;;;;;;10.80;9.63;;;18.50;99.90;;;;;;2115269;28;20459;-67
2021/07/22 02:29:04;;;;;;;12.73;10.57;;;18.50;99.90;;;;;;2115233;28;20398;-67
2021/07/22 02:30:05;;;;;;;11.63;9.68;;;18.50;99.90;;;;;;2115301;28;20065;-67
2021/07/22 02:31:05;;;;;;;14.30;9.73;;;18.40;99.90;;;;;;2115172;28;20026;-67
2021/07/22 02:32:06;;;;;;;12.35;10.82;;;18.40;99.90;;;;;;2114765;28;20016;-67
2021/07/22 02:33:07;;;;;;;10.50;9.15;;;18.40;99.90;;;;;;2114160;28;20031;-67
2021/07/22 02:34:08;;;;;;;11.35;9.95;;;18.40;99.90;;;;;;2114599;28;20352;-67
2021/07/22 02:35:09;;;;;;;10.65;9.43;;;18.40;99.90;;;;;;2109239;28;20059;-67
2021/07/22 02:36:09;;;;;;;11.07;8.93;;;18.40;99.90;;;;;;2098467;28;20020;-67
2021/07/22 02:37:10;;;;;;;11.88;9.50;;;18.40;99.90;;;;;;2104100;28;20043;-67
2021/07/22 02:38:10;;;;;;;11.60;10.45;;;18.40;99.90;;;;;;2106638;28;20103;-67
2021/07/22 02:39:11;;;;;;;15.70;10.13;;;18.40;99.90;;;;;;2106720;28;20020;-67
2021/07/22 02:40:12;;;;;;;12.55;9.48;;;18.40;99.90;;;;;;2106578;28;20024;-67
2021/07/22 02:41:13;;;;;;;11.63;10.27;;;18.40;99.90;;;;;;2098060;28;20024;-67
2021/07/22 02:42:14;;;;;;;11.20;10.05;;;18.40;99.90;;;;;;2105869;28;20031;-67
2021/07/22 02:43:14;;;;;;;11.35;9.60;;;18.40;99.90;;;;;;2106184;28;20103;-67
2021/07/22 02:44:15;;;;;;;10.85;9.38;;;18.40;99.90;;;;;;2106507;28;20081;-67
2021/07/22 02:45:15;;;;;;;10.88;9.55;;;18.30;99.90;;;;;;2105949;28;20577;-67
2021/07/22 02:46:16;;;;;;;11.88;10.52;;;18.40;99.90;;;;;;2106023;28;20059;-67
2021/07/22 02:47:16;;;;;;;11.73;9.48;;;18.40;99.90;;;;;;2106450;28;20440;-67
2021/07/22 02:48:17;;;;;;;11.27;9.32;;;18.30;99.90;;;;;;2106595;28;20020;-67
2021/07/22 02:49:18;;;;;;;10.32;9.23;;;18.30;99.90;;;;;;2106574;28;20043;-67
2021/07/22 02:50:18;;;;;;;11.38;8.80;;;18.30;99.90;;;;;;2106743;28;20020;-67
2021/07/22 02:51:19;;;;;;;9.90;8.45;;;18.30;99.90;;;;;;2106452;28;20079;-67
2021/07/22 02:52:19;;;;;;;10.52;9.43;;;18.30;99.90;;;;;;2106365;28;20024;-67
2021/07/22 02:53:20;;;;;;;11.75;9.27;;;18.30;99.90;;;;;;2106227;28;20037;-67
2021/07/22 02:54:20;;;;;;;10.30;9.23;;;18.30;99.90;;;;;;2106340;28;20032;-67
2021/07/22 02:55:21;;;;;;;11.10;9.18;;;18.30;99.90;;;;;;2114899;28;20032;-67
2021/07/22 02:56:22;;;;;;;10.00;9.00;;;18.30;99.90;;;;;;2108674;28;20541;-67
2021/07/22 02:57:22;;;;;;;11.60;10.25;;;18.30;99.90;;;;;;2105760;28;20047;-67
2021/07/22 02:58:23;;;;;;;11.30;9.30;;;18.30;99.90;;;;;;2105819;28;20036;-67
2021/07/22 02:59:23;;;;;;;10.45;9.35;;;18.30;99.90;;;;;;2108029;28;20495;-67
2021/07/22 03:00:24;;;;;;;12.20;9.55;;;18.30;99.90;;;;;;2115143;28;20121;-67
2021/07/22 03:01:24;;;;;;;12.57;9.57;;;18.30;99.90;;;;;;2112210;28;20030;-67
2021/07/22 03:02:25;;;;;;;12.25;10.55;;;18.30;99.90;;;;;;2106336;28;20194;-67
2021/07/22 03:03:26;;;;;;;14.38;10.15;;;18.30;99.90;;;;;;2114186;28;20456;-67
2021/07/22 03:04:30;;;;;;;10.55;8.57;;;18.30;99.90;;;;;;2112343;28;20032;-67
2021/07/22 03:05:31;;;;;;;11.43;10.23;;;18.30;99.90;;;;;;2106546;28;20455;-67
2021/07/22 03:06:31;;;;;;;13.52;10.18;;;18.30;99.90;;;;;;2106466;28;20424;-67
2021/07/22 03:07:33;;;;;;;13.55;11.02;;;18.30;99.90;;;;;;2106435;28;20066;-67
2021/07/22 03:08:35;;;;;;;12.70;10.50;;;18.30;99.90;;;;;;2106357;28;20032;-67
2021/07/22 03:09:36;;;;;;;11.55;9.35;;;18.20;99.90;;;;;;2111380;28;20015;-67
2021/07/22 03:10:36;;;;;;;11.95;10.52;;;18.20;99.90;;;;;;2106476;28;20028;-67
2021/07/22 03:11:37;;;;;;;11.10;8.88;;;18.20;99.90;;;;;;2106333;28;20052;-67
2021/07/22 03:12:37;;;;;;;10.00;9.00;;;18.20;99.90;;;;;;2105041;28;20015;-67
2021/07/22 03:13:38;;;;;;;11.57;9.63;;;18.20;99.90;;;;;;2105951;28;20028;-67
2021/07/22 03:14:39;;;;;;;9.93;8.85;;;18.20;99.90;;;;;;2106205;28;20020;-67
2021/07/22 03:15:39;;;;;;;11.38;9.35;;;18.20;99.90;;;;;;2106608;28;20479;-67
2021/07/22 03:16:40;;;;;;;10.70;9.55;;;18.20;99.90;;;;;;2106214;28;20062;-67
2021/07/22 03:17:40;;;;;;;16.60;10.18;;;18.20;99.90;;;;;;2111063;28;20027;-67
2021/07/22 03:18:41;;;;;;;12.02;9.57;;;18.20;99.90;;;;;;2114675;28;20027;-67
2021/07/22 03:19:41;;;;;;;10.98;9.15;;;18.10;99.90;;;;;;2114967;28;20024;-67
2021/07/22 03:20:42;;;;;;;13.52;9.25;;;18.20;99.90;;;;;;2114673;28;20435;-67
2021/07/22 03:21:42;;;;;;;10.75;9.48;;;18.20;99.90;;;;;;2114574;28;20068;-67
2021/07/22 03:22:43;;;;;;;11.00;9.77;;;18.10;99.90;;;;;;2111736;28;20042;-67
2021/07/22 03:23:43;;;;;;;10.88;9.77;;;18.10;99.90;;;;;;2106504;28;20016;-67
2021/07/22 03:24:44;;;;;;;9.93;8.65;;;18.10;99.90;;;;;;2106276;28;20028;-67
2021/07/22 03:25:45;;;;;;;12.57;9.63;;;18.10;99.90;;;;;;2106344;28;20132;-67
2021/07/22 03:26:46;;;;;;;9.90;8.82;;;18.10;99.90;;;;;;2106097;28;20026;-67
2021/07/22 03:27:46;;;;;;;17.30;9.65;;;18.10;99.90;;;;;;2106250;28;20024;-67
2021/07/22 03:28:47;;;;;;;10.25;8.70;;;18.10;99.90;;;;;;2106216;28;20024;-67
2021/07/22 03:29:48;;;;;;;11.07;9.18;;;18.10;99.90;;;;;;2106368;28;20028;-67
2021/07/22 03:30:48;;;;;;;13.85;8.95;;;18.10;99.90;;;;;;2106282;28;20019;-67
2021/07/22 03:31:49;;;;;;;11.18;9.80;;;18.10;99.90;;;;;;2105949;28;20392;-67
2021/07/22 03:32:49;;;;;;;10.07;9.07;;;18.10;99.90;;;;;;2105199;28;20032;-67
2021/07/22 03:33:50;;;;;;;10.93;9.77;;;18.10;99.90;;;;;;2105714;28;20506;-67
2021/07/22 03:34:50;;;;;;;11.20;9.18;;;18.10;99.90;;;;;;2106195;28;20056;-67
2021/07/22 03:35:51;;;;;;;10.05;8.93;;;18.10;99.90;;;;;;2106466;28;20031;-67
2021/07/22 03:36:51;;;;;;;12.18;10.13;;;18.10;99.90;;;;;;2105394;28;20035;-67
2021/07/22 03:37:52;;;;;;;9.68;8.35;;;18.10;99.90;;;;;;2106506;28;20759;-67
2021/07/22 03:38:53;;;;;;;12.73;9.73;;;18.10;99.90;;;;;;2105978;28;20096;-67
2021/07/22 03:39:53;;;;;;;10.23;8.80;;;18.10;99.90;;;;;;2107649;28;20464;-67
2021/07/22 03:40:54;;;;;;;10.88;9.32;;;18.10;99.90;;;;;;2114435;28;20072;-67
2021/07/22 03:41:54;;;;;;;10.23;9.15;;;18.00;99.90;;;;;;2114305;28;20028;-67
2021/07/22 03:42:55;;;;;;;10.98;9.80;;;18.00;99.90;;;;;;2114418;28;20538;-67
2021/07/22 03:43:55;;;;;;;12.55;9.57;;;18.00;99.90;;;;;;2114563;28;20024;-67
2021/07/22 03:44:56;;;;;;;11.05;9.18;;;18.00;99.90;;;;;;2114693;28;20028;-67
2021/07/22 03:45:59;;;;;;;10.68;9.57;;;18.00;99.90;;;;;;2114568;28;20015;-67
2021/07/22 03:47:00;;;;;;;11.13;9.13;;;18.10;99.90;;;;;;2113515;28;20408;-67
2021/07/22 03:48:01;;;;;;;9.60;8.52;;;18.00;99.90;;;;;;2108508;28;20051;-67
2021/07/22 03:49:01;;;;;;;8.82;7.93;;;18.00;99.90;;;;;;2106439;28;20483;-67
2021/07/22 03:50:02;;;;;;;10.43;8.65;;;18.00;99.90;;;;;;2105824;28;20020;-67
2021/07/22 03:51:03;;;;;;;10.98;9.18;;;18.10;99.90;;;;;;2106005;28;20103;-67
2021/07/22 03:52:04;;;;;;;11.25;9.90;;;18.00;99.90;;;;;;2113572;28;20022;-67
2021/07/22 03:53:04;;;;;;;11.25;9.25;;;18.00;99.90;;;;;;2114461;28;20031;-67
2021/07/22 03:54:05;;;;;;;10.60;9.50;;;18.00;99.90;;;;;;2114556;28;20023;-67
2021/07/22 03:55:06;;;;;;;11.00;9.88;;;18.00;99.90;;;;;;2109007;28;20031;-67
2021/07/22 03:56:07;;;;;;;11.48;9.85;;;18.00;99.90;;;;;;2109550;28;20451;-67
2021/07/22 03:57:07;;;;;;;10.07;9.00;;;18.00;99.90;;;;;;2105957;28;20028;-67
2021/07/22 03:58:08;;;;;;;12.40;9.75;;;18.00;99.90;;;;;;2109532;28;20096;-67
2021/07/22 03:59:08;;;;;;;13.38;9.63;;;18.00;99.90;;;;;;2106186;28;20032;-67
2021/07/22 04:00:10;;;;;;;10.52;9.43;;;18.00;99.90;;;;;;2105856;28;20039;-67
2021/07/22 04:01:11;;;;;;;14.63;9.77;;;18.00;99.90;;;;;;2105787;28;20048;-67
2021/07/22 04:02:11;;;;;;;10.40;9.38;;;18.00;99.90;;;;;;2105499;28;20472;-67
2021/07/22 04:03:12;;;;;;;10.43;9.32;;;17.90;99.90;;;;;;2104397;28;20032;-67
2021/07/22 04:04:12;;;;;;;11.57;9.35;;;17.90;99.90;;;;;;2113792;28;20042;-67
2021/07/22 04:05:13;;;;;;;10.05;8.75;;;17.90;99.90;;;;;;2109540;28;20123;-67
2021/07/22 04:06:14;;;;;;;11.65;8.88;;;17.90;99.90;;;;;;2109200;28;20039;-67
2021/07/22 04:07:14;;;;;;;13.15;9.60;;;18.00;99.90;;;;;;2105800;28;20368;-67
2021/07/22 04:08:15;;;;;;;9.98;8.98;;;17.90;99.90;;;;;;2105989;28;20030;-67
2021/07/22 04:09:15;;;;;;;10.85;9.10;;;17.90;99.90;;;;;;2105879;28;20099;-67
2021/07/22 04:10:16;;;;;;;11.68;8.77;;;18.00;99.90;;;;;;2105866;28;20518;-67
2021/07/22 04:11:16;;;;;;;10.13;9.00;;;17.90;99.90;;;;;;2106170;28;20472;-67
2021/07/22 04:12:17;;;;;;;10.68;9.30;;;17.90;99.90;;;;;;2105627;28;20383;-67
2021/07/22 04:13:18;;;;;;;12.52;9.10;;;17.90;99.90;;;;;;2105709;28;20024;-67
2021/07/22 04:14:19;;;;;;;11.70;9.68;;;17.90;99.90;;;;;;2105654;28;20051;-67
2021/07/22 04:15:19;;;;;;;10.05;8.93;;;17.90;99.90;;;;;;2105486;28;20040;-67
2021/07/22 04:16:20;;;;;;;13.15;9.45;;;17.90;99.90;;;;;;2105308;28;20070;-67
2021/07/22 04:17:20;;;;;;;12.55;9.43;;;18.00;99.90;;;;;;2105764;28;20111;-67
2021/07/22 04:18:21;;;;;;;10.50;9.00;;;17.90;99.90;;;;;;2105854;28;20081;-67
2021/07/22 04:19:21;;;;;;;13.23;9.88;;;17.90;99.90;;;;;;2105680;28;20072;-67
2021/07/22 04:20:24;;;;;;;10.10;8.95;;;17.90;99.90;;;;;;2106374;28;20028;-67
2021/07/22 04:21:24;;;;;;;9.80;8.80;;;17.90;99.90;;;;;;2114191;28;20024;-67
2021/07/22 04:22:25;;;;;;;9.25;8.38;;;17.90;99.90;;;;;;2114290;28;20076;-67
2021/07/22 04:23:25;;;;;;;10.65;9.02;;;17.90;99.90;;;;;;2113090;28;20106;-67
2021/07/22 04:24:26;;;;;;;9.75;8.68;;;17.90;99.90;;;;;;2113693;28;20074;-67
2021/07/22 04:25:27;;;;;;;11.38;9.10;;;17.90;99.90;;;;;;2104379;28;20020;-67
2021/07/22 04:26:27;;;;;;;9.30;8.30;;;18.00;99.90;;;;;;2108417;28;20028;-67
2021/07/22 04:27:28;;;;;;;10.77;9.20;;;18.00;99.90;;;;;;2111497;28;20027;-67
2021/07/22 04:28:29;;;;;;;9.82;8.15;;;18.00;99.90;;;;;;2114092;28;20104;-67
2021/07/22 04:29:29;;;;;;;9.93;8.73;;;18.00;99.90;;;;;;2105794;28;20027;-67
2021/07/22 04:30:30;;;;;;;11.18;9.38;;;18.00;99.90;;;;;;2105993;28;20020;-67
2021/07/22 04:31:30;;;;;;;11.00;8.82;;;18.00;99.90;;;;;;2105559;28;20039;-67
2021/07/22 04:32:31;;;;;;;10.27;9.18;;;18.00;99.90;;;;;;2105783;28;20471;-67
2021/07/22 04:33:31;;;;;;;12.27;9.40;;;18.00;99.90;;;;;;2104999;28;20376;-67
2021/07/22 04:34:32;;;;;;;13.07;9.82;;;18.00;99.90;;;;;;2105871;28;20042;-67
2021/07/22 04:35:32;;;;;;;11.98;9.77;;;18.00;99.90;;;;;;2105630;28;20093;-67
2021/07/22 04:36:33;;;;;;;12.07;9.30;;;18.00;99.90;;;;;;2105940;28;20026;-67
2021/07/22 04:37:35;;;;;;;14.90;9.13;;;18.00;99.90;;;;;;2105858;28;20077;-67
2021/07/22 04:38:37;;;;;;;12.82;9.80;;;18.00;99.90;;;;;;2105921;28;20024;-67
2021/07/22 04:39:37;;;;;;;15.18;10.73;;;18.10;99.90;;;;;;2105702;28;20028;-67
2021/07/22 04:40:38;;;;;;;13.85;10.15;;;18.10;99.90;;;;;;2105873;28;20020;-67
2021/07/22 04:41:38;;;;;;;12.00;9.18;;;18.10;99.90;;;;;;2105622;28;20104;-67
2021/07/22 04:42:39;;;;;;;12.05;9.50;;;18.20;99.90;;;;;;2105599;28;20051;-67
2021/07/22 04:43:39;;;;;;;11.27;9.55;;;18.10;99.90;;;;;;2105681;28;20066;-67
2021/07/22 04:44:40;;;;;;;11.90;10.55;;;18.10;99.90;;;;;;2105712;28;20028;-67
2021/07/22 04:45:41;;;;;;;13.52;10.43;;;18.10;99.90;;;;;;2105826;28;20367;-67
2021/07/22 04:46:41;;;;;;;13.07;10.18;;;18.20;99.90;;;;;;2105870;28;20490;-67
2021/07/22 04:47:42;;;;;;;13.13;9.93;;;18.20;99.90;;;;;;2105452;28;20019;-67
2021/07/22 04:48:43;;;;;;;11.68;10.50;;;18.20;99.90;;;;;;2105898;28;20027;-67
2021/07/22 04:49:43;;;;;;;15.55;10.70;;;18.20;99.90;;;;;;2105682;28;20035;-67
2021/07/22 04:50:44;;;;;;;15.55;10.13;;;18.20;99.90;;;;;;2105697;28;20028;-67
2021/07/22 04:51:44;;;;;;;13.93;9.23;;;18.20;99.90;;;;;;2105422;28;20359;-67
2021/07/22 04:52:45;;;;;;;11.43;8.93;;;18.30;99.90;;;;;;2105588;28;20395;-67
2021/07/22 04:53:45;;;;;;;11.13;9.52;;;18.30;99.90;;;;;;2106040;28;20070;-67
2021/07/22 04:54:46;;;;;;;11.75;10.32;;;18.30;99.90;;;;;;2105647;28;20024;-67
2021/07/22 04:55:46;;;;;;;13.70;10.02;;;18.30;99.90;;;;;;2106044;28;20024;-67
2021/07/22 04:56:47;;;;;;;11.23;10.02;;;18.30;99.90;;;;;;2105730;28;20020;-67
2021/07/22 04:57:56;;;;;;;12.75;10.40;;;18.40;99.90;;;;;;2105961;28;20371;-67
2021/07/22 04:58:56;;;;;;;14.07;10.20;;;18.40;99.90;;;;;;2107630;28;20016;-67
2021/07/22 04:59:57;;;;;;;12.32;9.75;;;18.50;99.90;;;;;;2107520;28;20017;-67
2021/07/22 05:00:57;;;;;;;14.18;10.38;;;18.50;99.90;;;;;;2108451;28;20076;-67
2021/07/22 05:01:58;;;;;;;11.27;10.10;;;18.50;99.90;;;;;;2108416;28;20124;-67
2021/07/22 05:02:59;;;;;;;12.02;9.63;;;18.60;99.90;;;;;;2106516;28;20012;-67
2021/07/22 05:04:00;;;;;;;14.70;9.18;;;18.60;99.90;;;;;;2102595;28;20032;-67
2021/07/22 05:05:00;;;;;;;12.60;9.73;;;18.60;99.90;;;;;;2104021;28;20054;-67
2021/07/22 05:06:01;;;;;;;12.43;10.50;;;18.70;99.90;;;;;;2100310;28;20091;-67
2021/07/22 05:07:01;;;;;;;11.80;9.95;;;18.70;99.90;;;;;;2100019;28;20514;-67
2021/07/22 05:08:02;;;;;;;11.27;9.80;;;18.70;99.90;;;;;;2100171;28;20020;-67
2021/07/22 05:09:03;;;;;;;12.27;10.13;;;18.80;99.90;;;;;;2099639;28;20506;-67
2021/07/22 05:10:04;;;;;;;18.27;10.15;;;18.80;99.90;;;;;;2100420;28;20418;-67
2021/07/22 05:11:07;;;;;;;11.80;9.52;;;18.80;99.90;;;;;;2102669;28;20089;-67
2021/07/22 05:12:09;;;;;;;10.68;9.48;;;18.90;99.90;;;;;;2101494;28;20016;-67